Time;durP1;ratioP1;P1;durP2;ratioP2;P2;SDS_P1;SDS_P2;PMS_P1;PMS_P2;Temp;Humidity;BMP_temperature;BMP_pressure;BME280_temperature;BME280_humidity;BME280_pressure;Samples;Min_cycle;Max_cycle;Signal;HPM_P1;HPM_P2
2020/12/16 00:02:16;;;;;;;38.13;26.63;;;6.40;99.90;;;;;;5021143;28;20996;-77
2020/12/16 00:04:42;;;;;;;48.77;31.40;;;6.40;99.90;;;;;;5021566;28;20496;-77
2020/12/16 00:07:09;;;;;;;52.30;31.03;;;6.40;99.90;;;;;;5022377;28;20292;-78
2020/12/16 00:09:35;;;;;;;57.53;32.50;;;6.40;99.90;;;;;;5022264;28;20209;-78
2020/12/16 00:12:01;;;;;;;50.97;33.23;;;6.40;99.90;;;;;;5022681;28;20622;-78
2020/12/16 00:14:28;;;;;;;53.37;35.37;;;6.40;99.90;;;;;;5026482;28;20279;-79
2020/12/16 00:16:54;;;;;;;80.77;37.00;;;6.40;99.90;;;;;;5026220;28;20206;-76
2020/12/16 00:19:22;;;;;;;56.83;35.33;;;6.40;99.90;;;;;;5025313;28;20198;-77
2020/12/16 00:21:48;;;;;;;74.60;35.13;;;6.40;99.90;;;;;;5026142;28;20915;-77
2020/12/16 00:24:14;;;;;;;70.33;35.03;;;6.40;99.90;;;;;;5025158;28;20202;-77
2020/12/16 00:26:42;;;;;;;51.13;33.70;;;6.50;99.90;;;;;;5024934;28;20955;-77
2020/12/16 00:29:08;;;;;;;63.17;35.80;;;6.50;99.90;;;;;;5024589;28;20195;-77
2020/12/16 00:31:35;;;;;;;45.57;32.67;;;6.50;99.90;;;;;;5025412;28;20968;-77
2020/12/16 00:34:01;;;;;;;105.90;35.23;;;6.50;99.90;;;;;;5024559;28;20265;-77
2020/12/16 00:36:28;;;;;;;140.60;33.77;;;6.50;99.90;;;;;;5025285;28;20203;-77
2020/12/16 00:38:54;;;;;;;51.20;27.23;;;6.50;99.90;;;;;;5024805;28;20218;-77
2020/12/16 00:41:21;;;;;;;115.17;27.47;;;6.50;99.90;;;;;;5024547;28;20218;-77
2020/12/16 00:43:47;;;;;;;80.30;26.43;;;6.50;99.90;;;;;;5025473;28;20212;-77
2020/12/16 00:46:14;;;;;;;64.07;25.93;;;6.50;99.90;;;;;;5024763;28;20215;-76
2020/12/16 00:48:40;;;;;;;71.43;25.80;;;6.50;99.90;;;;;;5024787;28;20905;-78
2020/12/16 00:51:06;;;;;;;56.73;25.90;;;6.50;99.90;;;;;;5025134;28;20551;-77
2020/12/16 00:53:37;;;;;;;46.13;23.80;;;6.50;99.90;;;;;;5024585;28;20249;-77
2020/12/16 00:56:05;;;;;;;50.80;23.07;;;6.50;99.90;;;;;;5024358;28;20210;-76
2020/12/16 00:58:31;;;;;;;45.03;23.33;;;6.50;99.90;;;;;;5024793;28;20203;-77
2020/12/16 01:00:58;;;;;;;86.93;25.90;;;6.50;99.90;;;;;;5024454;28;20254;-77
2020/12/16 01:03:24;;;;;;;78.63;24.43;;;6.50;99.90;;;;;;5024104;28;20554;-77
2020/12/16 01:05:50;;;;;;;57.07;24.03;;;6.50;99.90;;;;;;5024721;28;20516;-77
2020/12/16 01:08:17;;;;;;;53.63;23.37;;;6.60;99.90;;;;;;5024119;28;20205;-76
2020/12/16 01:10:44;;;;;;;97.77;25.53;;;6.50;99.90;;;;;;5024323;28;20211;-77
2020/12/16 01:13:10;;;;;;;116.77;27.60;;;6.60;99.90;;;;;;5024450;28;20206;-78
2020/12/16 01:15:37;;;;;;;118.53;28.23;;;6.60;99.90;;;;;;5023961;28;20226;-78
2020/12/16 01:18:03;;;;;;;87.70;26.87;;;6.60;99.90;;;;;;5024471;28;20904;-78
2020/12/16 01:20:29;;;;;;;121.87;28.27;;;6.50;99.90;;;;;;5020894;28;20207;-77
2020/12/16 01:22:55;;;;;;;108.50;27.07;;;6.60;99.90;;;;;;5004128;28;20207;-77
2020/12/16 01:25:22;;;;;;;111.57;28.93;;;6.60;99.90;;;;;;5004461;28;20246;-77
2020/12/16 01:27:52;;;;;;;69.90;27.40;;;6.70;99.90;;;;;;5005131;28;20207;-78
2020/12/16 01:30:18;;;;;;;52.57;26.07;;;6.60;99.90;;;;;;5003889;28;20858;-78
2020/12/16 01:32:45;;;;;;;140.10;31.07;;;6.70;99.90;;;;;;5004830;28;20222;-78
2020/12/16 01:35:11;;;;;;;105.80;28.60;;;6.70;99.90;;;;;;5003854;28;20226;-78
2020/12/16 01:37:39;;;;;;;98.40;30.10;;;6.70;99.90;;;;;;5003976;28;20211;-77
2020/12/16 01:40:06;;;;;;;119.37;27.50;;;6.70;99.90;;;;;;5003637;28;20211;-77
2020/12/16 01:42:33;;;;;;;57.67;25.10;;;6.70;99.90;;;;;;5004184;28;20908;-77
2020/12/16 01:45:03;;;;;;;108.40;27.37;;;6.60;99.90;;;;;;5003428;28;20203;-77
2020/12/16 01:47:29;;;;;;;86.17;27.97;;;6.60;99.90;;;;;;5004480;28;20204;-76
2020/12/16 01:49:56;;;;;;;87.50;27.40;;;6.60;99.90;;;;;;5004060;28;20600;-77
2020/12/16 01:52:26;;;;;;;45.63;25.07;;;6.70;99.90;;;;;;5002823;28;20809;-78
2020/12/16 01:54:54;;;;;;;88.60;26.20;;;6.70;99.90;;;;;;5004204;28;20227;-76
2020/12/16 01:57:23;;;;;;;62.60;25.47;;;6.60;99.90;;;;;;5003120;28;20580;-78
2020/12/16 01:59:51;;;;;;;85.50;27.30;;;6.60;99.90;;;;;;5004223;28;20199;-78
2020/12/16 02:02:20;;;;;;;67.37;26.23;;;6.60;99.90;;;;;;5003627;28;20207;-79
2020/12/16 02:04:51;;;;;;;85.73;28.60;;;6.60;99.90;;;;;;5002966;28;20199;-77
2020/12/16 02:07:17;;;;;;;72.27;27.03;;;6.60;99.90;;;;;;5003148;28;20318;-77
2020/12/16 02:09:45;;;;;;;85.23;28.53;;;6.60;99.90;;;;;;5003950;28;20211;-77
2020/12/16 02:12:13;;;;;;;35.47;23.20;;;6.60;99.90;;;;;;5003175;28;20204;-76
2020/12/16 02:14:40;;;;;;;75.60;26.47;;;6.60;99.90;;;;;;5003655;28;20231;-78
2020/12/16 02:17:08;;;;;;;46.17;25.57;;;6.60;99.90;;;;;;5003318;28;20552;-77
2020/12/16 02:19:39;;;;;;;73.20;27.87;;;6.60;99.90;;;;;;5002947;28;20273;-77
2020/12/16 02:22:06;;;;;;;72.00;27.63;;;6.60;99.90;;;;;;5003253;28;20221;-77
2020/12/16 02:24:33;;;;;;;97.77;30.83;;;6.60;99.90;;;;;;5004137;28;20946;-77
2020/12/16 02:27:00;;;;;;;74.73;29.63;;;6.60;99.90;;;;;;5002590;28;20294;-78
2020/12/16 02:29:27;;;;;;;106.30;31.37;;;6.60;99.90;;;;;;5003460;28;20200;-78
2020/12/16 02:31:55;;;;;;;45.63;27.57;;;6.60;99.90;;;;;;5004173;28;20211;-77
2020/12/16 02:34:22;;;;;;;49.87;28.27;;;6.60;99.90;;;;;;5001024;28;20229;-77
2020/12/16 02:36:48;;;;;;;115.17;33.10;;;6.60;99.90;;;;;;5002490;28;20238;-78
2020/12/16 02:39:14;;;;;;;48.03;28.90;;;6.50;99.90;;;;;;5002009;28;20238;-79
2020/12/16 02:41:40;;;;;;;83.30;32.60;;;6.60;99.90;;;;;;5001330;28;20203;-77
2020/12/16 02:44:08;;;;;;;50.63;28.97;;;6.60;99.90;;;;;;5002871;28;20199;-79
2020/12/16 02:46:34;;;;;;;82.83;31.17;;;6.60;99.90;;;;;;5003512;28;20214;-76
2020/12/16 02:49:02;;;;;;;97.13;33.83;;;6.60;99.90;;;;;;5003268;28;20199;-76
2020/12/16 02:51:28;;;;;;;113.73;35.10;;;6.60;99.90;;;;;;5002975;28;20242;-77
2020/12/16 02:53:55;;;;;;;88.30;33.97;;;6.60;99.90;;;;;;5002998;28;20254;-76
2020/12/16 02:56:21;;;;;;;99.23;35.67;;;6.60;99.90;;;;;;5002381;28;20945;-76
2020/12/16 02:58:47;;;;;;;85.40;37.27;;;6.60;99.90;;;;;;5002597;28;20203;-76
2020/12/16 03:01:14;;;;;;;106.43;36.07;;;6.60;99.90;;;;;;5002231;28;20838;-77
2020/12/16 03:03:41;;;;;;;85.97;36.50;;;6.60;99.90;;;;;;5003369;28;20199;-76
2020/12/16 03:06:07;;;;;;;111.87;40.23;;;6.70;99.90;;;;;;5002181;28;20751;-76
2020/12/16 03:08:33;;;;;;;84.53;37.60;;;6.70;99.90;;;;;;5002104;28;20250;-76
2020/12/16 03:10:59;;;;;;;105.37;37.77;;;6.70;99.90;;;;;;5002748;28;20254;-77
2020/12/16 03:13:25;;;;;;;89.73;37.17;;;6.70;99.90;;;;;;5002928;28;20207;-77
2020/12/16 03:15:52;;;;;;;91.30;38.93;;;6.70;99.90;;;;;;5002281;28;20729;-76
2020/12/16 03:18:19;;;;;;;80.67;38.00;;;6.70;99.90;;;;;;5001999;28;20195;-75
2020/12/16 03:20:45;;;;;;;81.97;37.87;;;6.70;99.90;;;;;;5008955;28;20206;-76
2020/12/16 03:23:11;;;;;;;95.67;39.47;;;6.70;99.90;;;;;;5021945;28;20207;-77
2020/12/16 03:25:37;;;;;;;69.33;38.10;;;6.70;99.90;;;;;;5022492;28;20264;-76
2020/12/16 03:28:04;;;;;;;86.83;39.33;;;6.70;99.90;;;;;;5021922;28;20638;-75
2020/12/16 03:30:30;;;;;;;86.50;39.33;;;6.70;99.90;;;;;;5021470;28;20948;-76
2020/12/16 03:32:56;;;;;;;80.27;35.77;;;6.70;99.90;;;;;;5021740;28;20195;-77
2020/12/16 03:35:24;;;;;;;80.10;36.87;;;6.70;99.90;;;;;;5021467;28;20233;-77
2020/12/16 03:37:50;;;;;;;85.70;39.70;;;6.70;99.90;;;;;;5021409;28;20202;-76
2020/12/16 03:40:16;;;;;;;116.93;40.00;;;6.70;99.90;;;;;;5021633;28;20622;-76
2020/12/16 03:42:42;;;;;;;105.07;39.07;;;6.70;99.90;;;;;;5022521;28;20202;-77
2020/12/16 03:45:09;;;;;;;75.67;36.90;;;6.70;99.90;;;;;;5022019;28;20222;-76
2020/12/16 03:47:35;;;;;;;119.67;37.97;;;6.70;99.90;;;;;;5021725;28;20207;-76
2020/12/16 03:50:01;;;;;;;78.17;36.77;;;6.70;99.90;;;;;;5021329;28;20209;-76
2020/12/16 03:52:28;;;;;;;108.07;39.30;;;6.70;99.90;;;;;;5021101;28;20246;-75
2020/12/16 03:54:54;;;;;;;74.10;35.60;;;6.70;99.90;;;;;;5022241;28;20222;-76
2020/12/16 03:57:21;;;;;;;105.27;39.17;;;6.70;99.90;;;;;;5021124;28;20214;-76
2020/12/16 03:59:47;;;;;;;150.57;40.10;;;6.70;99.90;;;;;;5021785;28;20203;-76
2020/12/16 04:02:13;;;;;;;133.70;41.47;;;6.70;99.90;;;;;;5021523;28;20210;-77
2020/12/16 04:04:39;;;;;;;146.33;41.90;;;6.70;99.90;;;;;;5021194;28;20252;-75
2020/12/16 04:07:05;;;;;;;130.10;38.87;;;6.60;99.90;;;;;;5021785;28;20198;-77
2020/12/16 04:09:33;;;;;;;160.80;41.07;;;6.60;99.90;;;;;;5021655;28;20195;-76
2020/12/16 04:11:59;;;;;;;132.63;41.27;;;6.60;99.90;;;;;;5021530;28;20228;-76
2020/12/16 04:14:25;;;;;;;87.17;39.43;;;6.60;99.90;;;;;;5022168;28;20241;-78
2020/12/16 04:16:56;;;;;;;111.60;40.80;;;6.60;99.90;;;;;;5021516;28;20206;-76
2020/12/16 04:19:22;;;;;;;118.60;41.77;;;6.60;99.90;;;;;;5021049;28;20282;-76
2020/12/16 04:21:48;;;;;;;69.47;37.67;;;6.60;99.90;;;;;;5007256;28;20218;-76
2020/12/16 04:24:14;;;;;;;85.70;39.17;;;6.60;99.90;;;;;;5002043;28;20308;-78
2020/12/16 04:26:41;;;;;;;102.83;41.40;;;6.60;99.90;;;;;;5001571;28;20203;-76
2020/12/16 04:29:08;;;;;;;116.37;42.87;;;6.60;99.90;;;;;;5001535;28;20197;-77
2020/12/16 04:31:34;;;;;;;116.37;44.97;;;6.60;99.90;;;;;;5001907;28;20788;-75
2020/12/16 04:34:00;;;;;;;123.53;46.00;;;6.60;99.90;;;;;;5001118;28;20214;-75
2020/12/16 04:36:26;;;;;;;136.83;45.33;;;6.60;99.90;;;;;;5001887;28;20561;-76
2020/12/16 04:38:53;;;;;;;164.20;49.00;;;6.60;99.90;;;;;;5001953;28;20234;-76
2020/12/16 04:41:19;;;;;;;169.00;49.30;;;6.70;99.90;;;;;;5001097;28;20310;-78
2020/12/16 04:43:48;;;;;;;122.30;48.43;;;6.70;99.90;;;;;;5000859;28;20233;-78
2020/12/16 04:46:15;;;;;;;135.87;48.67;;;6.70;99.90;;;;;;5001090;28;20592;-78
2020/12/16 04:48:45;;;;;;;125.23;51.20;;;6.70;99.90;;;;;;5002278;28;20685;-76
2020/12/16 04:51:13;;;;;;;147.43;48.90;;;6.70;99.90;;;;;;5002417;28;20196;-78
2020/12/16 04:53:40;;;;;;;101.47;48.60;;;6.70;99.90;;;;;;5001349;28;20247;-78
2020/12/16 04:56:06;;;;;;;120.33;48.63;;;6.70;99.90;;;;;;5001681;28;20959;-78
2020/12/16 04:58:33;;;;;;;107.77;48.87;;;6.70;99.90;;;;;;5004179;28;20204;-78
2020/12/16 05:01:00;;;;;;;135.20;50.87;;;6.80;99.90;;;;;;5005621;28;20207;-76
2020/12/16 05:03:26;;;;;;;138.10;50.67;;;6.70;99.90;;;;;;5005994;28;20253;-77
2020/12/16 05:05:52;;;;;;;128.80;51.17;;;6.70;99.90;;;;;;5005327;28;20864;-78
2020/12/16 05:08:19;;;;;;;111.30;49.83;;;6.70;99.90;;;;;;5004245;28;20203;-78
2020/12/16 05:10:47;;;;;;;131.63;50.27;;;6.70;99.90;;;;;;5005656;28;20203;-78
2020/12/16 05:13:16;;;;;;;118.37;49.07;;;6.80;99.90;;;;;;5004883;28;21028;-77
2020/12/16 05:15:43;;;;;;;136.20;50.90;;;6.80;99.90;;;;;;5005318;28;20239;-78
2020/12/16 05:18:13;;;;;;;127.77;47.73;;;6.70;99.90;;;;;;5005315;28;20203;-77
2020/12/16 05:20:42;;;;;;;142.80;47.90;;;6.70;99.90;;;;;;5011062;28;20202;-78
2020/12/16 05:23:08;;;;;;;128.73;46.47;;;6.80;99.90;;;;;;5024101;28;20204;-78
2020/12/16 05:25:36;;;;;;;169.03;48.00;;;6.80;99.90;;;;;;5024878;28;20209;-78
2020/12/16 05:28:04;;;;;;;125.77;45.53;;;6.70;99.90;;;;;;5024510;28;20207;-78
2020/12/16 05:30:30;;;;;;;177.13;46.33;;;6.70;99.90;;;;;;5024896;28;20205;-78
2020/12/16 05:33:01;;;;;;;135.07;46.77;;;6.70;99.90;;;;;;5024879;28;20203;-78
2020/12/16 05:35:31;;;;;;;160.47;45.17;;;6.60;99.90;;;;;;5024237;28;20758;-77
2020/12/16 05:38:02;;;;;;;123.10;43.90;;;6.60;99.90;;;;;;5024366;28;20756;-79
2020/12/16 05:40:30;;;;;;;107.33;41.10;;;6.60;99.90;;;;;;5024754;28;20559;-79
2020/12/16 05:42:57;;;;;;;141.57;45.60;;;6.60;99.90;;;;;;5024724;28;20293;-78
2020/12/16 05:45:25;;;;;;;138.53;43.83;;;6.60;99.90;;;;;;5023884;28;20863;-78
2020/12/16 05:48:08;;;;;;;110.67;42.83;;;6.60;99.90;;;;;;5024536;28;20207;-78
2020/12/16 05:50:39;;;;;;;114.90;42.60;;;6.60;99.90;;;;;;5023453;28;21052;-78
2020/12/16 05:53:17;;;;;;;91.40;39.60;;;6.60;99.90;;;;;;5022561;28;20253;-78
2020/12/16 05:55:49;;;;;;;152.67;43.10;;;6.60;99.90;;;;;;5023668;28;20544;-77
2020/12/16 05:58:16;;;;;;;135.80;44.00;;;6.60;99.90;;;;;;5023381;28;20268;-77
2020/12/16 06:00:48;;;;;;;176.77;45.50;;;6.50;99.90;;;;;;5024389;28;20205;-77
2020/12/16 06:03:20;;;;;;;139.90;42.87;;;6.50;99.90;;;;;;5023938;28;20194;-77
2020/12/16 06:05:49;;;;;;;123.27;40.93;;;6.50;99.90;;;;;;5022669;28;20919;-76
2020/12/16 06:08:16;;;;;;;141.37;44.27;;;6.50;99.90;;;;;;5022365;28;20195;-77
2020/12/16 06:10:44;;;;;;;119.23;40.97;;;6.50;99.90;;;;;;5022058;28;20203;-76
2020/12/16 06:13:13;;;;;;;152.73;42.13;;;6.50;99.90;;;;;;5023863;28;20206;-77
2020/12/16 06:15:55;;;;;;;106.57;40.73;;;6.50;99.90;;;;;;5023637;28;20539;-77
2020/12/16 06:18:24;;;;;;;128.97;39.93;;;6.50;99.90;;;;;;5022765;28;20628;-77
2020/12/16 06:20:52;;;;;;;127.13;40.87;;;6.60;99.90;;;;;;5016973;28;20198;-78
2020/12/16 06:23:30;;;;;;;128.30;39.23;;;6.60;99.90;;;;;;5003276;28;20195;-77
2020/12/16 06:25:57;;;;;;;183.53;40.90;;;6.50;99.90;;;;;;5003690;28;20187;-79
2020/12/16 06:28:24;;;;;;;96.93;37.10;;;6.50;99.90;;;;;;5003231;28;20203;-78
2020/12/16 06:30:58;;;;;;;110.93;38.87;;;6.40;99.90;;;;;;5003961;28;20270;-77
2020/12/16 06:33:45;;;;;;;110.77;39.03;;;6.40;99.90;;;;;;5003228;28;20211;-76
2020/12/16 06:36:12;;;;;;;128.90;39.00;;;6.40;99.90;;;;;;5003163;28;20227;-79
2020/12/16 06:38:41;;;;;;;136.27;38.90;;;6.40;99.90;;;;;;5002622;28;20215;-78
2020/12/16 06:41:21;;;;;;;120.10;38.30;;;6.40;99.90;;;;;;5003179;28;20203;-76
2020/12/16 06:43:48;;;;;;;101.03;35.30;;;6.40;99.90;;;;;;5003578;28;20207;-76
2020/12/16 06:46:40;;;;;;;100.80;34.93;;;6.50;99.90;;;;;;5003190;28;20211;-81
2020/12/16 06:49:27;;;;;;;188.90;35.97;;;6.40;99.90;;;;;;5003580;28;20207;-76
2020/12/16 06:51:57;;;;;;;94.27;30.87;;;6.40;99.90;;;;;;5004108;28;20199;-76
2020/12/16 06:54:24;;;;;;;124.70;32.80;;;6.30;99.90;;;;;;5002482;28;20239;-78
2020/12/16 06:57:10;;;;;;;99.43;32.60;;;6.30;99.90;;;;;;5003340;28;20207;-76
2020/12/16 06:59:44;;;;;;;69.63;29.13;;;6.20;99.90;;;;;;5002941;28;20233;-76
2020/12/16 07:02:12;;;;;;;67.53;29.67;;;6.30;99.90;;;;;;5003235;28;20670;-76
2020/12/16 07:04:38;;;;;;;72.43;30.17;;;6.30;99.90;;;;;;5003353;28;20203;-76
2020/12/16 07:07:06;;;;;;;80.97;32.63;;;6.20;99.90;;;;;;5002787;28;20224;-76
2020/12/16 07:09:33;;;;;;;68.10;29.60;;;6.20;99.90;;;;;;5002855;28;20203;-76
2020/12/16 07:12:00;;;;;;;75.00;31.07;;;6.20;99.90;;;;;;5003055;28;20231;-77
2020/12/16 07:14:34;;;;;;;68.73;31.17;;;6.20;99.90;;;;;;5002710;28;20223;-78
2020/12/16 07:17:09;;;;;;;66.70;31.57;;;6.20;99.90;;;;;;5003326;28;20559;-76
2020/12/16 07:19:35;;;;;;;56.43;30.10;;;6.20;99.90;;;;;;5002745;28;20265;-78
2020/12/16 07:22:16;;;;;;;64.77;31.90;;;6.20;99.90;;;;;;5018587;28;20226;-77
2020/12/16 07:24:47;;;;;;;72.57;31.17;;;6.30;99.90;;;;;;5022514;28;20638;-76
2020/12/16 07:27:18;;;;;;;88.33;32.40;;;6.30;99.90;;;;;;5022658;28;20321;-77
2020/12/16 07:29:55;;;;;;;62.30;31.27;;;6.30;99.90;;;;;;5022410;28;20206;-76
2020/12/16 07:32:22;;;;;;;97.73;33.10;;;6.30;99.90;;;;;;5021839;28;20665;-79
2020/12/16 07:34:50;;;;;;;81.17;31.97;;;6.30;99.90;;;;;;5022597;28;20223;-76
2020/12/16 07:37:20;;;;;;;75.63;31.80;;;6.20;99.90;;;;;;5022862;28;20202;-77
2020/12/16 07:39:49;;;;;;;92.80;33.93;;;6.30;99.90;;;;;;5022432;28;20538;-76
2020/12/16 07:42:21;;;;;;;86.43;34.13;;;6.30;99.90;;;;;;5021803;28;20209;-77
2020/12/16 07:44:48;;;;;;;68.00;33.53;;;6.30;99.90;;;;;;5022390;28;20199;-76
2020/12/16 07:47:16;;;;;;;76.23;33.13;;;6.30;99.90;;;;;;5022042;28;20207;-77
2020/12/16 07:49:43;;;;;;;75.53;34.57;;;6.30;99.90;;;;;;5021832;28;20237;-77
2020/12/16 07:52:10;;;;;;;81.17;34.97;;;6.40;99.90;;;;;;5021955;28;20234;-78
2020/12/16 07:54:37;;;;;;;88.70;35.23;;;6.40;99.90;;;;;;5021796;28;20685;-76
2020/12/16 07:57:04;;;;;;;82.03;34.10;;;6.40;99.90;;;;;;5021251;28;20631;-77
2020/12/16 07:59:32;;;;;;;71.67;32.57;;;6.40;99.90;;;;;;5021675;28;20388;-76
2020/12/16 08:02:19;;;;;;;75.13;33.60;;;6.40;99.90;;;;;;5022508;28;20198;-78
2020/12/16 08:04:55;;;;;;;71.87;31.97;;;6.40;99.90;;;;;;5016435;28;20206;-78
2020/12/16 08:07:21;;;;;;;70.97;31.77;;;6.40;99.90;;;;;;5022135;28;20206;-77
2020/12/16 08:09:56;;;;;;;83.30;33.40;;;6.50;99.90;;;;;;5021957;28;20276;-77
2020/12/16 08:12:24;;;;;;;87.70;33.67;;;6.50;99.90;;;;;;5021757;28;20202;-77
2020/12/16 08:14:51;;;;;;;66.47;32.10;;;6.50;99.90;;;;;;5022176;28;20222;-77
2020/12/16 08:17:17;;;;;;;74.73;34.10;;;6.50;99.90;;;;;;5021256;28;20206;-75
2020/12/16 08:19:43;;;;;;;87.07;35.43;;;6.50;99.90;;;;;;5021643;28;20214;-77
2020/12/16 08:22:14;;;;;;;84.87;35.07;;;6.60;99.90;;;;;;5004011;28;20658;-76
2020/12/16 08:24:40;;;;;;;85.63;34.50;;;6.60;99.90;;;;;;5001754;28;20206;-76
2020/12/16 08:27:07;;;;;;;61.53;28.53;;;6.50;99.90;;;;;;5002242;28;20249;-78
2020/12/16 08:29:36;;;;;;;78.30;30.70;;;6.50;99.90;;;;;;5001984;28;20211;-77
2020/12/16 08:32:04;;;;;;;62.17;28.80;;;6.50;99.90;;;;;;5001799;28;20203;-77
2020/12/16 08:34:32;;;;;;;72.07;31.00;;;6.50;99.90;;;;;;5005059;28;20209;-76
2020/12/16 08:37:01;;;;;;;75.47;31.03;;;6.50;99.90;;;;;;5005727;28;20196;-75
2020/12/16 08:39:28;;;;;;;71.10;29.50;;;6.50;99.90;;;;;;5005121;28;20215;-76
2020/12/16 08:41:55;;;;;;;75.80;31.03;;;6.50;99.90;;;;;;5005484;28;20670;-76
2020/12/16 08:44:23;;;;;;;76.70;31.37;;;6.50;99.90;;;;;;5005528;28;20203;-75
2020/12/16 08:46:50;;;;;;;68.87;30.53;;;6.50;99.90;;;;;;5005429;28;20289;-77
2020/12/16 08:49:21;;;;;;;74.30;31.43;;;6.60;99.90;;;;;;5005542;28;20203;-77
2020/12/16 08:51:48;;;;;;;83.23;32.93;;;6.60;99.90;;;;;;5005473;28;20481;-77
2020/12/16 08:54:16;;;;;;;75.13;32.93;;;6.60;99.90;;;;;;5004981;28;20572;-76
2020/12/16 08:56:50;;;;;;;71.67;31.93;;;6.60;99.90;;;;;;5005674;28;20203;-78
2020/12/16 08:59:17;;;;;;;83.23;31.53;;;6.60;99.90;;;;;;5004967;28;20211;-78
2020/12/16 09:01:45;;;;;;;73.57;30.33;;;6.70;99.90;;;;;;5004717;28;20223;-76
2020/12/16 09:04:22;;;;;;;71.67;31.13;;;6.70;99.90;;;;;;5005176;28;20488;-76
2020/12/16 09:06:59;;;;;;;72.00;28.43;;;6.60;99.90;;;;;;5004719;28;20207;-79
2020/12/16 09:09:25;;;;;;;63.13;28.10;;;6.60;99.90;;;;;;5005281;28;20234;-76
2020/12/16 09:11:51;;;;;;;68.20;28.57;;;6.60;99.90;;;;;;5005732;28;20206;-77
2020/12/16 09:14:19;;;;;;;55.83;26.67;;;6.60;99.90;;;;;;5004731;28;20199;-80
2020/12/16 09:16:46;;;;;;;66.40;28.67;;;6.60;99.90;;;;;;5005712;28;20210;-79
2020/12/16 09:19:20;;;;;;;71.60;27.07;;;6.60;99.90;;;;;;5005846;28;20199;-78
2020/12/16 09:21:47;;;;;;;59.83;26.70;;;6.60;99.90;;;;;;5003529;28;20203;-78
2020/12/16 09:24:13;;;;;;;66.83;28.23;;;6.60;99.90;;;;;;5004761;28;20207;-78
2020/12/16 09:26:42;;;;;;;66.70;29.63;;;6.60;99.90;;;;;;5005520;28;20287;-78
2020/12/16 09:29:21;;;;;;;71.57;30.27;;;6.60;99.90;;;;;;5004973;28;20406;-79
2020/12/16 09:31:50;;;;;;;86.03;32.90;;;6.70;99.90;;;;;;5006285;28;20199;-78
2020/12/16 09:34:17;;;;;;;84.60;32.77;;;6.80;99.90;;;;;;5004931;28;20881;-78
2020/12/16 09:36:43;;;;;;;76.07;31.37;;;6.80;99.90;;;;;;5005516;28;20211;-80
2020/12/16 09:39:10;;;;;;;88.47;34.80;;;6.70;99.90;;;;;;5005217;28;20599;-78
2020/12/16 09:41:49;;;;;;;78.93;31.47;;;6.70;99.90;;;;;;5004183;28;20320;-78
2020/12/16 09:44:29;;;;;;;83.87;33.80;;;6.70;99.90;;;;;;5004744;28;20290;-78
2020/12/16 09:47:11;;;;;;;79.13;32.10;;;6.80;99.90;;;;;;5005420;28;20211;-78
2020/12/16 09:49:38;;;;;;;80.67;31.37;;;6.80;99.90;;;;;;5004814;28;20199;-79
2020/12/16 09:52:05;;;;;;;78.43;32.47;;;6.80;99.90;;;;;;5005027;28;20482;-79
2020/12/16 09:54:32;;;;;;;80.03;32.17;;;6.80;99.90;;;;;;5004480;28;20227;-79
2020/12/16 09:57:08;;;;;;;64.97;29.27;;;6.80;99.90;;;;;;5004605;28;20604;-78
2020/12/16 09:59:35;;;;;;;69.37;31.93;;;6.70;99.90;;;;;;5005281;28;20260;-78
2020/12/16 10:02:02;;;;;;;64.63;30.33;;;6.80;99.90;;;;;;5004392;28;20806;-78
2020/12/16 10:04:28;;;;;;;67.77;30.70;;;6.80;99.90;;;;;;5003682;28;20191;-79
2020/12/16 10:06:55;;;;;;;65.20;31.07;;;6.80;99.90;;;;;;5005301;28;20203;-78
2020/12/16 10:09:21;;;;;;;74.60;31.07;;;6.90;99.90;;;;;;5004080;28;20203;-78
2020/12/16 10:11:49;;;;;;;77.50;31.60;;;6.90;99.90;;;;;;5004644;28;20341;-78
2020/12/16 10:14:17;;;;;;;67.83;30.23;;;6.90;99.90;;;;;;5004661;28;20294;-77
2020/12/16 10:16:47;;;;;;;61.30;29.60;;;6.90;99.90;;;;;;5004368;28;20285;-79
2020/12/16 10:19:16;;;;;;;64.87;28.53;;;7.00;99.90;;;;;;5004614;28;20795;-78
2020/12/16 10:21:43;;;;;;;64.07;29.40;;;7.00;99.90;;;;;;5017913;28;20301;-79
2020/12/16 10:24:09;;;;;;;72.97;30.20;;;7.00;99.90;;;;;;5023804;28;20252;-78
2020/12/16 10:26:37;;;;;;;57.80;28.90;;;7.00;99.90;;;;;;5023618;28;20199;-78
2020/12/16 10:29:03;;;;;;;69.30;29.40;;;7.00;99.90;;;;;;5023740;28;20209;-78
2020/12/16 10:31:29;;;;;;;62.63;29.87;;;7.00;99.90;;;;;;5023759;28;20207;-78
2020/12/16 10:33:55;;;;;;;67.37;29.27;;;7.00;99.90;;;;;;5023540;28;20268;-78
2020/12/16 10:36:22;;;;;;;71.93;32.27;;;7.10;99.90;;;;;;5023541;28;20230;-79
2020/12/16 10:38:49;;;;;;;59.67;29.27;;;7.10;99.90;;;;;;5023952;28;20219;-79
2020/12/16 10:41:15;;;;;;;60.47;28.90;;;7.10;99.90;;;;;;5023019;28;20198;-77
2020/12/16 10:43:41;;;;;;;60.10;30.43;;;7.10;99.90;;;;;;5024115;28;20206;-79
2020/12/16 10:46:08;;;;;;;59.57;30.53;;;7.10;99.90;;;;;;5021992;28;20202;-77
2020/12/16 10:48:35;;;;;;;70.83;33.83;;;7.20;99.90;;;;;;5023173;28;20214;-79
2020/12/16 10:51:01;;;;;;;58.50;28.40;;;7.20;99.90;;;;;;5023296;28;20199;-76
2020/12/16 10:53:29;;;;;;;57.70;31.07;;;7.20;99.90;;;;;;5022484;28;20247;-79
2020/12/16 10:55:56;;;;;;;73.47;33.97;;;7.20;99.90;;;;;;5012449;28;20242;-76
2020/12/16 10:58:23;;;;;;;69.13;32.40;;;7.30;99.90;;;;;;5022318;28;20206;-78
2020/12/16 11:00:50;;;;;;;65.20;32.03;;;7.20;99.90;;;;;;5017907;28;20322;-79
2020/12/16 11:03:17;;;;;;;67.47;33.00;;;7.30;99.90;;;;;;5009098;28;20199;-77
2020/12/16 11:05:43;;;;;;;70.47;33.57;;;7.30;99.90;;;;;;5010526;28;20265;-79
2020/12/16 11:08:09;;;;;;;61.63;31.63;;;7.20;99.90;;;;;;5013929;28;20286;-76
2020/12/16 11:10:36;;;;;;;58.77;33.17;;;7.30;99.90;;;;;;5003601;28;20218;-77
2020/12/16 11:13:04;;;;;;;55.83;31.97;;;7.30;99.90;;;;;;5009380;28;20237;-78
2020/12/16 11:15:31;;;;;;;60.17;33.70;;;7.30;99.90;;;;;;5021674;28;20234;-78
2020/12/16 11:17:58;;;;;;;56.87;32.30;;;7.40;99.90;;;;;;5014682;28;20223;-78
2020/12/16 11:20:24;;;;;;;56.50;32.83;;;7.40;99.90;;;;;;5014844;28;20226;-79
2020/12/16 11:22:50;;;;;;;61.60;33.07;;;7.40;99.90;;;;;;5011073;28;20237;-79
2020/12/16 11:25:17;;;;;;;57.20;32.47;;;7.50;99.90;;;;;;5007185;28;20214;-79
2020/12/16 11:27:43;;;;;;;62.67;33.67;;;7.50;99.90;;;;;;5010462;28;20206;-80
2020/12/16 11:30:09;;;;;;;59.30;34.23;;;7.50;99.90;;;;;;5011178;28;20595;-77
2020/12/16 11:32:37;;;;;;;59.07;32.90;;;7.50;99.90;;;;;;5014789;28;20245;-77
2020/12/16 11:35:04;;;;;;;54.00;34.00;;;7.60;99.90;;;;;;5014925;28;20234;-78
2020/12/16 11:37:31;;;;;;;57.33;33.77;;;7.60;99.90;;;;;;5014436;28;20654;-77
2020/12/16 11:39:59;;;;;;;52.93;32.63;;;7.60;99.90;;;;;;5003201;28;20229;-81
2020/12/16 11:42:25;;;;;;;49.73;30.43;;;7.60;99.90;;;;;;5016703;28;20237;-77
2020/12/16 11:44:52;;;;;;;46.57;29.67;;;7.70;99.90;;;;;;5013628;28;20210;-77
2020/12/16 11:47:18;;;;;;;46.60;29.63;;;7.80;99.90;;;;;;5014303;28;20869;-81
2020/12/16 11:49:46;;;;;;;41.40;26.43;;;7.80;99.90;;;;;;5014643;28;20214;-78
2020/12/16 11:52:12;;;;;;;37.30;25.00;;;7.80;99.90;;;;;;5015147;28;20214;-78
2020/12/16 11:54:38;;;;;;;35.03;25.30;;;7.90;99.90;;;;;;5023297;28;20845;-78
2020/12/16 11:57:05;;;;;;;37.07;25.67;;;7.90;99.90;;;;;;5022075;28;20690;-77
2020/12/16 11:59:31;;;;;;;32.03;22.60;;;8.00;99.90;;;;;;5023104;28;20926;-80
2020/12/16 12:01:58;;;;;;;31.70;23.07;;;8.00;99.90;;;;;;5022044;28;20195;-80
2020/12/16 12:04:24;;;;;;;31.53;23.47;;;8.10;99.90;;;;;;5020848;28;20542;-80
2020/12/16 12:06:52;;;;;;;29.20;22.27;;;8.10;99.90;;;;;;5021352;28;20576;-79
2020/12/16 12:09:18;;;;;;;27.23;19.90;;;8.20;99.90;;;;;;5024423;28;20206;-77
2020/12/16 12:11:45;;;;;;;25.70;19.77;;;8.20;99.90;;;;;;5026426;28;20202;-78
2020/12/16 12:14:11;;;;;;;24.57;19.27;;;8.20;99.90;;;;;;5026596;28;20210;-77
2020/12/16 12:16:37;;;;;;;26.67;19.20;;;8.30;99.90;;;;;;5025259;28;20233;-77
2020/12/16 12:19:03;;;;;;;25.63;18.60;;;8.40;99.90;;;;;;5024923;28;20214;-77
2020/12/16 12:21:30;;;;;;;22.03;18.53;;;8.40;99.90;;;;;;5012269;28;20203;-77
2020/12/16 12:23:57;;;;;;;22.57;17.40;;;8.40;99.90;;;;;;5004610;28;20208;-76
2020/12/16 12:26:23;;;;;;;23.40;18.23;;;8.50;99.90;;;;;;5004943;28;20300;-76
2020/12/16 12:28:49;;;;;;;22.47;17.47;;;8.50;99.90;;;;;;5004392;28;20257;-77
2020/12/16 12:31:16;;;;;;;23.17;17.20;;;8.60;99.90;;;;;;5004489;28;20603;-79
2020/12/16 12:33:42;;;;;;;18.90;15.90;;;8.60;99.90;;;;;;5005356;28;20232;-78
2020/12/16 12:36:09;;;;;;;22.27;16.33;;;8.60;99.90;;;;;;5005657;28;20219;-76
2020/12/16 12:38:35;;;;;;;20.00;15.67;;;8.70;99.90;;;;;;5005215;28;20226;-79